Time;durP1;ratioP1;P1;durP2;ratioP2;P2;SDS_P1;SDS_P2;PMS_P1;PMS_P2;Temp;Humidity;BMP_temperature;BMP_pressure;BME280_temperature;BME280_humidity;BME280_pressure;Samples;Min_cycle;Max_cycle;Signal;HPM_P1;HPM_P2
2021/09/21 00:00:05;;;;;;;6.18;4.25;;;;;;;14.64;64.54;102020.94;689098;28;22454;-71
2021/09/21 00:00:27;;;;;;;5.68;4.07;;;;;;;14.65;64.80;102024.50;686015;28;92256;-71
2021/09/21 00:00:48;;;;;;;5.13;3.92;;;;;;;14.67;64.69;102025.16;688715;28;22390;-71
2021/09/21 00:01:09;;;;;;;4.82;4.10;;;;;;;14.66;64.63;102024.31;688714;28;21532;-72
2021/09/21 00:01:31;;;;;;;6.57;4.32;;;;;;;14.65;64.83;102022.63;688986;28;23455;-73
2021/09/21 00:01:52;;;;;;;4.70;4.00;;;;;;;14.64;64.68;102020.94;686994;28;69460;-72
2021/09/21 00:02:13;;;;;;;4.90;4.10;;;;;;;14.65;64.83;102021.78;688879;28;21481;-72
2021/09/21 00:02:34;;;;;;;4.28;3.97;;;;;;;14.65;64.81;102024.50;688911;28;22396;-72
2021/09/21 00:02:56;;;;;;;4.10;3.80;;;;;;;14.65;64.89;102030.78;688455;28;21543;-72
2021/09/21 00:03:17;;;;;;;4.45;4.03;;;;;;;14.64;64.76;102020.06;688003;28;46390;-74
2021/09/21 00:03:38;;;;;;;4.22;3.83;;;;;;;14.64;64.53;102020.06;688907;28;22194;-71
2021/09/21 00:04:00;;;;;;;4.30;3.90;;;;;;;14.58;64.73;102019.72;689204;28;23410;-71
2021/09/21 00:04:26;;;;;;;4.38;3.90;;;;;;;14.63;64.81;102019.22;688869;28;22405;-72
2021/09/21 00:04:48;;;;;;;4.57;3.90;;;;;;;14.64;64.66;102028.22;684529;28;139505;-72
2021/09/21 00:05:10;;;;;;;5.05;4.10;;;;;;;14.64;64.85;102028.22;688142;28;44114;-71
2021/09/21 00:05:31;;;;;;;4.47;4.00;;;;;;;14.63;64.75;102024.66;688931;28;22461;-72
2021/09/21 00:05:52;;;;;;;4.40;4.00;;;;;;;14.63;64.71;102021.94;688863;28;23564;-73
2021/09/21 00:06:14;;;;;;;5.03;4.00;;;;;;;14.62;65.00;102017.53;688540;28;24146;-72
2021/09/21 00:06:35;;;;;;;4.43;3.83;;;;;;;14.63;64.79;102021.94;687769;28;46339;-72
2021/09/21 00:06:57;;;;;;;5.38;3.80;;;;;;;14.63;64.81;102023.84;688632;28;22385;-73
2021/09/21 00:07:18;;;;;;;5.15;3.97;;;;;;;14.63;64.68;102032.00;686885;28;69473;-72
2021/09/21 00:07:41;;;;;;;5.05;4.03;;;;;;;14.63;64.86;102029.28;688251;28;21539;-71
2021/09/21 00:08:02;;;;;;;4.40;4.00;;;;;;;14.63;64.68;102024.66;687477;28;44226;-72
2021/09/21 00:08:27;;;;;;;4.70;4.30;;;;;;;14.63;64.81;102021.13;691039;28;23327;-71
2021/09/21 00:08:48;;;;;;;4.38;3.97;;;;;;;14.62;64.93;102022.97;687895;28;113534;-72
2021/09/21 00:09:10;;;;;;;4.85;3.92;;;;;;;14.61;65.05;102024.00;690838;28;22387;-72
2021/09/21 00:09:31;;;;;;;4.70;4.30;;;;;;;14.62;64.85;102036.56;690550;28;45393;-71
2021/09/21 00:09:52;;;;;;;4.57;4.18;;;;;;;14.63;64.94;102027.38;691118;28;23487;-71
2021/09/21 00:10:13;;;;;;;4.55;3.88;;;;;;;14.63;64.88;102026.56;690452;28;21520;-72
2021/09/21 00:10:35;;;;;;;5.27;4.00;;;;;;;14.63;64.86;102021.13;688029;28;44135;-72
2021/09/21 00:10:57;;;;;;;5.57;4.43;;;;;;;14.62;64.96;102019.41;685761;28;69719;-71
2021/09/21 00:11:18;;;;;;;5.93;4.25;;;;;;;14.61;64.73;102021.28;687289;28;44368;-72
2021/09/21 00:11:39;;;;;;;5.35;4.13;;;;;;;14.63;64.85;102026.56;688620;28;22412;-71
2021/09/21 00:12:02;;;;;;;4.82;4.32;;;;;;;14.62;64.76;102025.69;688788;28;22232;-71
2021/09/21 00:12:23;;;;;;;4.45;4.05;;;;;;;14.62;64.95;102028.41;687794;28;67861;-72
2021/09/21 00:12:45;;;;;;;4.70;4.30;;;;;;;14.62;64.67;102028.41;688468;28;1027;-72
2021/09/21 00:13:06;;;;;;;4.80;4.40;;;;;;;14.63;64.78;102023.84;687699;28;44367;-72
2021/09/21 00:13:29;;;;;;;4.53;4.13;;;;;;;14.63;65.03;102026.56;685753;28;24918;-72
2021/09/21 00:13:51;;;;;;;4.60;4.00;;;;;;;14.59;64.67;102021.44;686048;28;13315;-71
2021/09/21 00:14:12;;;;;;;4.10;3.80;;;;;;;14.61;64.79;102021.28;686071;28;21916;-71
2021/09/21 00:14:33;;;;;;;4.30;4.00;;;;;;;14.58;64.93;102027.88;685710;28;21548;-72
2021/09/21 00:14:55;;;;;;;5.90;4.10;;;;;;;14.60;65.09;102028.56;685418;28;46317;-71
2021/09/21 00:15:17;;;;;;;4.13;3.78;;;;;;;14.60;65.10;102033.16;688944;28;23050;-71
2021/09/21 00:15:38;;;;;;;4.47;4.07;;;;;;;14.59;65.02;102032.31;689897;28;70243;-71
2021/09/21 00:15:59;;;;;;;4.63;4.22;;;;;;;14.58;64.88;102032.47;690145;28;44411;-71
2021/09/21 00:16:21;;;;;;;4.30;3.95;;;;;;;14.57;64.99;102034.31;688166;28;22387;-71
2021/09/21 00:16:42;;;;;;;4.57;4.18;;;;;;;14.57;65.03;102028.03;688389;28;45269;-71
2021/09/21 00:17:03;;;;;;;5.68;4.07;;;;;;;14.56;65.21;102034.50;688931;28;23448;-72
2021/09/21 00:17:25;;;;;;;6.05;4.00;;;;;;;14.54;65.11;102033.81;689166;28;21519;-73
2021/09/21 00:17:48;;;;;;;4.43;3.92;;;;;;;14.57;65.26;102030.75;687625;28;46325;-72
2021/09/21 00:18:09;;;;;;;4.93;4.28;;;;;;;14.54;65.27;102028.38;688277;28;46670;-71
2021/09/21 00:18:30;;;;;;;5.13;4.18;;;;;;;14.55;64.94;102032.81;688419;28;23348;-71
2021/09/21 00:18:52;;;;;;;4.57;3.85;;;;;;;14.56;65.08;102034.50;688019;28;45254;-72
2021/09/21 00:19:13;;;;;;;4.55;4.15;;;;;;;14.54;65.06;102034.66;688254;28;43717;-72
2021/09/21 00:19:35;;;;;;;4.53;4.13;;;;;;;14.54;65.06;102037.38;688561;28;23483;-72
2021/09/21 00:19:56;;;;;;;4.53;4.18;;;;;;;14.55;65.43;102035.53;688822;28;22448;-72
2021/09/21 00:20:18;;;;;;;4.20;3.90;;;;;;;14.53;65.15;102026.69;689010;28;22414;-72
2021/09/21 00:20:39;;;;;;;4.72;3.92;;;;;;;14.52;65.37;102034.00;687731;28;67508;-72
2021/09/21 00:21:01;;;;;;;4.80;3.92;;;;;;;14.48;65.16;102029.94;690098;28;23559;-72
2021/09/21 00:21:22;;;;;;;4.55;4.13;;;;;;;14.51;65.21;102036.88;689384;28;21293;-72
2021/09/21 00:21:44;;;;;;;5.47;4.25;;;;;;;14.51;65.24;102036.88;689965;28;21558;-71
2021/09/21 00:22:06;;;;;;;5.00;4.10;;;;;;;14.50;65.50;102040.59;688587;28;46262;-72
2021/09/21 00:22:27;;;;;;;4.43;4.03;;;;;;;14.48;65.29;102040.81;688097;28;69341;-72
2021/09/21 00:22:49;;;;;;;4.93;4.00;;;;;;;14.47;65.47;102032.81;688505;28;22404;-72
2021/09/21 00:23:10;;;;;;;4.60;4.15;;;;;;;14.48;65.22;102040.81;688036;28;45330;-71
2021/09/21 00:23:31;;;;;;;4.40;4.10;;;;;;;14.42;65.30;102031.47;688929;28;22422;-70
2021/09/21 00:23:52;;;;;;;4.43;4.10;;;;;;;14.45;65.46;102038.44;688787;28;22455;-71
2021/09/21 00:24:15;;;;;;;4.90;4.50;;;;;;;14.46;65.58;102042.84;688774;28;21512;-71
2021/09/21 00:24:36;;;;;;;4.68;4.28;;;;;;;14.46;65.42;102040.13;689142;28;45592;-72
2021/09/21 00:24:57;;;;;;;4.35;3.92;;;;;;;14.46;65.46;102040.13;691112;28;22398;-73
2021/09/21 00:25:18;;;;;;;5.47;4.32;;;;;;;14.40;65.32;102030.78;691208;28;22197;-72
2021/09/21 00:25:39;;;;;;;5.80;4.28;;;;;;;14.46;65.60;102044.72;691281;28;21541;-72
2021/09/21 00:26:01;;;;;;;5.97;4.50;;;;;;;14.46;65.40;102040.13;691527;28;23452;-71
2021/09/21 00:26:22;;;;;;;4.60;4.20;;;;;;;14.45;65.35;102038.44;689729;28;45373;-71
2021/09/21 00:26:43;;;;;;;4.80;4.40;;;;;;;14.45;65.47;102040.28;688812;28;22406;-72
2021/09/21 00:27:04;;;;;;;4.65;4.15;;;;;;;14.46;65.60;102039.28;691418;28;23423;-72
2021/09/21 00:27:26;;;;;;;4.63;4.22;;;;;;;14.46;65.47;102039.28;691543;28;23466;-74
2021/09/21 00:27:51;;;;;;;5.30;4.35;;;;;;;14.45;65.71;102043.88;688228;28;59743;-72
2021/09/21 00:28:18;;;;;;;4.30;3.90;;;;;;;14.45;65.79;102037.56;686994;28;138057;-72
2021/09/21 00:28:41;;;;;;;4.35;4.00;;;;;;;14.45;65.71;102034.84;689943;28;46425;-72
2021/09/21 00:29:02;;;;;;;4.43;4.13;;;;;;;14.44;65.54;102033.16;688596;28;45269;-71
2021/09/21 00:29:23;;;;;;;5.00;4.22;;;;;;;14.44;65.89;102035.88;687856;28;44416;-72
2021/09/21 00:29:46;;;;;;;6.53;4.40;;;;;;;14.43;65.63;102040.47;690473;28;22334;-71
2021/09/21 00:30:09;;;;;;;5.72;4.28;;;;;;;14.42;65.60;102036.91;690145;28;44245;-71
2021/09/21 00:30:31;;;;;;;4.40;3.97;;;;;;;14.43;65.65;102035.03;687201;28;67592;-71
2021/09/21 00:30:53;;;;;;;5.38;4.38;;;;;;;14.42;65.94;102030.63;687675;28;44530;-71
2021/09/21 00:31:15;;;;;;;4.60;4.20;;;;;;;14.44;65.84;102041.31;688331;28;46398;-72
2021/09/21 00:31:38;;;;;;;4.88;4.47;;;;;;;14.43;65.67;102029.59;688638;28;46538;-71
2021/09/21 00:32:00;;;;;;;4.45;4.05;;;;;;;14.42;65.67;102033.34;687186;28;69396;-72
2021/09/21 00:32:30;;;;;;;5.30;4.00;;;;;;;14.43;65.81;102035.03;688007;28;46447;-73
2021/09/21 00:33:01;;;;;;;4.90;4.40;;;;;;;14.41;65.77;102032.47;684748;28;137743;-71
2021/09/21 00:33:25;;;;;;;5.65;4.38;;;;;;;14.44;65.84;102033.16;687699;28;59854;-73
2021/09/21 00:33:48;;;;;;;5.53;4.05;;;;;;;14.44;65.59;102034.00;688739;28;22428;-71
2021/09/21 00:34:11;;;;;;;4.43;4.03;;;;;;;14.43;65.78;102026.88;688301;28;39206;-72
2021/09/21 00:34:38;;;;;;;6.32;4.20;;;;;;;14.43;65.68;102024.16;687343;28;67397;-71
2021/09/21 00:35:00;;;;;;;5.38;4.10;;;;;;;14.41;65.77;102024.31;684974;28;137793;-72
2021/09/21 00:35:21;;;;;;;4.40;3.92;;;;;;;14.42;65.58;102031.47;687971;28;44108;-72
2021/09/21 00:35:43;;;;;;;4.53;3.72;;;;;;;14.42;65.95;102025.19;688611;28;22502;-71
2021/09/21 00:36:05;;;;;;;4.50;4.10;;;;;;;14.42;65.92;102028.75;688998;28;23094;-73
2021/09/21 00:36:26;;;;;;;5.00;4.03;;;;;;;14.41;65.83;102023.47;687114;28;46413;-72
2021/09/21 00:36:47;;;;;;;4.28;3.88;;;;;;;14.43;65.84;102026.88;688611;28;23707;-71
2021/09/21 00:37:11;;;;;;;4.53;3.88;;;;;;;14.41;65.66;102020.75;688619;28;22393;-73
2021/09/21 00:37:33;;;;;;;5.97;3.90;;;;;;;14.40;65.78;102019.91;685455;28;115692;-71
2021/09/21 00:37:54;;;;;;;4.60;4.20;;;;;;;14.42;65.64;102025.19;687651;28;46526;-72
2021/09/21 00:38:18;;;;;;;4.20;3.80;;;;;;;14.41;65.64;102024.31;687485;28;45727;-73
2021/09/21 00:38:39;;;;;;;4.25;3.85;;;;;;;14.41;65.88;102024.31;687327;28;69130;-71
2021/09/21 00:39:01;;;;;;;6.00;4.00;;;;;;;14.41;65.97;102023.47;688974;28;22402;-72
2021/09/21 00:39:22;;;;;;;5.25;3.92;;;;;;;14.40;66.00;102029.91;688072;28;46351;-72
2021/09/21 00:39:44;;;;;;;5.60;4.00;;;;;;;14.40;65.63;102028.06;688358;28;21549;-72
2021/09/21 00:40:07;;;;;;;4.55;3.90;;;;;;;14.40;65.88;102024.50;688167;28;45299;-71
2021/09/21 00:40:29;;;;;;;4.22;3.83;;;;;;;14.38;65.97;102024.66;686932;28;69382;-72
2021/09/21 00:40:50;;;;;;;4.30;3.80;;;;;;;14.39;65.90;102030.97;687790;28;44381;-72
2021/09/21 00:41:13;;;;;;;4.40;4.00;;;;;;;14.38;65.85;102027.38;689124;28;23604;-72
2021/09/21 00:41:35;;;;;;;4.78;4.28;;;;;;;14.38;65.98;102026.53;685835;28;90772;-72
2021/09/21 00:41:57;;;;;;;4.53;4.10;;;;;;;14.36;65.90;102026.72;687773;28;46433;-71
2021/09/21 00:42:24;;;;;;;5.28;3.92;;;;;;;14.35;65.95;102018.72;688334;28;22358;-73
2021/09/21 00:42:46;;;;;;;4.17;3.87;;;;;;;14.35;66.26;102030.44;684571;28;139138;-73
2021/09/21 00:43:08;;;;;;;4.57;4.13;;;;;;;14.35;65.94;102026.88;686375;28;69276;-72
2021/09/21 00:43:29;;;;;;;4.60;3.90;;;;;;;14.35;66.17;102025.00;688474;28;23529;-70
2021/09/21 00:43:50;;;;;;;5.18;4.35;;;;;;;14.36;66.34;102031.31;688496;28;21474;-71
2021/09/21 00:44:12;;;;;;;4.57;4.22;;;;;;;14.35;66.24;102027.72;688771;28;22398;-72
2021/09/21 00:44:35;;;;;;;5.32;4.18;;;;;;;14.36;66.13;102028.59;690528;28;45556;-71
2021/09/21 00:44:58;;;;;;;4.53;4.15;;;;;;;14.37;66.12;102041.13;688773;28;67303;-72
2021/09/21 00:45:20;;;;;;;4.47;4.07;;;;;;;14.36;66.09;102026.72;688895;28;69461;-72
2021/09/21 00:45:42;;;;;;;4.40;4.00;;;;;;;14.36;66.24;102028.59;690809;28;47409;-71
2021/09/21 00:46:03;;;;;;;4.50;4.10;;;;;;;14.34;66.27;102027.88;690626;28;45249;-70
2021/09/21 00:46:24;;;;;;;5.30;4.05;;;;;;;14.36;66.36;102032.16;690087;28;21535;-70
2021/09/21 00:46:46;;;;;;;4.68;3.80;;;;;;;14.31;66.35;102020.94;689495;28;22401;-70
2021/09/21 00:47:11;;;;;;;4.45;4.05;;;;;;;14.35;66.38;102021.44;690301;28;13375;-70
2021/09/21 00:47:32;;;;;;;4.80;4.07;;;;;;;14.34;66.39;102027.88;687796;28;69098;-70
2021/09/21 00:47:54;;;;;;;4.45;4.07;;;;;;;14.34;66.15;102023.31;689407;28;21634;-70
2021/09/21 00:48:16;;;;;;;5.18;4.13;;;;;;;14.33;66.39;102029.75;688247;28;46319;-70
2021/09/21 00:48:38;;;;;;;5.05;4.07;;;;;;;14.33;66.19;102023.50;686175;28;46424;-70
2021/09/21 00:48:59;;;;;;;4.57;4.03;;;;;;;14.33;66.28;102024.34;687087;28;23104;-70
2021/09/21 00:49:20;;;;;;;4.40;3.97;;;;;;;14.32;66.13;102021.78;687129;28;23547;-70
2021/09/21 00:49:41;;;;;;;4.95;4.15;;;;;;;14.31;66.38;102034.53;687047;28;21550;-70
2021/09/21 00:50:03;;;;;;;4.53;4.10;;;;;;;14.32;66.32;102024.50;686858;28;22104;-70
2021/09/21 00:50:29;;;;;;;4.43;3.97;;;;;;;14.29;66.32;102017.53;687940;28;60648;-70
2021/09/21 00:50:50;;;;;;;5.35;3.78;;;;;;;14.32;66.47;102017.19;689441;28;69225;-71
2021/09/21 00:51:11;;;;;;;5.45;4.10;;;;;;;14.33;66.22;102023.50;691176;28;23475;-70
2021/09/21 00:51:33;;;;;;;5.70;4.30;;;;;;;14.31;66.30;102018.22;691250;28;23447;-70
2021/09/21 00:51:55;;;;;;;4.95;4.13;;;;;;;14.31;66.28;102020.06;688799;28;45274;-70
2021/09/21 00:52:17;;;;;;;5.10;4.30;;;;;;;14.30;66.61;102018.41;688425;28;24412;-70
2021/09/21 00:52:38;;;;;;;5.07;3.90;;;;;;;14.29;66.64;102028.41;687499;28;67499;-70
2021/09/21 00:53:01;;;;;;;4.47;4.07;;;;;;;14.28;66.49;102018.56;688910;28;22404;-70
2021/09/21 00:53:24;;;;;;;5.10;4.10;;;;;;;14.25;66.37;102024.34;687019;28;67624;-70
2021/09/21 00:53:45;;;;;;;5.03;4.13;;;;;;;14.28;66.65;102020.41;687428;28;69546;-70
2021/09/21 00:54:07;;;;;;;4.63;4.18;;;;;;;14.28;66.76;102014.97;688224;28;44581;-70
2021/09/21 00:54:32;;;;;;;4.95;4.15;;;;;;;14.24;66.80;102017.19;687560;28;59373;-70
2021/09/21 00:54:54;;;;;;;4.60;4.05;;;;;;;14.27;66.75;102016.03;688379;28;21299;-70
2021/09/21 00:55:16;;;;;;;4.13;3.80;;;;;;;14.27;66.80;102029.59;690136;28;22400;-70
2021/09/21 00:55:38;;;;;;;4.40;3.88;;;;;;;14.28;66.82;102023.13;689588;28;68332;-71
2021/09/21 00:56:00;;;;;;;5.00;4.35;;;;;;;14.28;66.57;102018.56;690471;28;44382;-71
2021/09/21 00:56:21;;;;;;;4.97;4.30;;;;;;;14.29;66.75;102022.97;691026;28;21016;-70
2021/09/21 00:56:43;;;;;;;4.60;4.20;;;;;;;14.28;66.86;102021.28;690824;28;22398;-70
2021/09/21 00:57:04;;;;;;;4.60;3.90;;;;;;;14.30;66.54;102016.53;688594;28;46370;-70
2021/09/21 00:57:25;;;;;;;4.85;3.80;;;;;;;14.28;66.67;102015.84;688596;28;22286;-70
2021/09/21 00:57:46;;;;;;;4.63;3.88;;;;;;;14.30;66.74;102024.66;684529;28;45923;-69
2021/09/21 00:58:08;;;;;;;4.20;3.80;;;;;;;14.31;66.58;102020.94;686491;28;1780;-70
2021/09/21 00:58:31;;;;;;;5.13;3.88;;;;;;;14.33;66.36;102023.50;684733;28;1245;-70
2021/09/21 00:58:52;;;;;;;4.35;3.90;;;;;;;14.31;66.46;102023.66;683730;28;46355;-70
2021/09/21 00:59:13;;;;;;;4.25;3.85;;;;;;;14.32;66.60;102014.47;684419;28;21420;-70
2021/09/21 00:59:34;;;;;;;4.43;4.03;;;;;;;14.32;66.39;102017.19;685055;28;22482;-70
2021/09/21 00:59:56;;;;;;;4.70;4.20;;;;;;;14.32;66.35;102025.34;687269;28;21399;-70
2021/09/21 01:00:19;;;;;;;4.40;3.90;;;;;;;14.23;66.58;102008.19;687014;28;45263;-70
2021/09/21 01:00:40;;;;;;;4.28;3.97;;;;;;;14.29;66.66;102019.41;686409;28;90345;-70
2021/09/21 01:01:02;;;;;;;4.50;4.10;;;;;;;14.32;66.57;102024.50;690562;28;46236;-70
2021/09/21 01:01:24;;;;;;;4.55;4.15;;;;;;;14.27;66.71;102018.72;691144;28;21590;-70
2021/09/21 01:01:46;;;;;;;4.82;4.40;;;;;;;14.31;66.56;102023.66;686256;28;46172;-70
2021/09/21 01:02:07;;;;;;;4.32;3.90;;;;;;;14.28;66.37;102017.69;687840;28;45195;-70
2021/09/21 01:02:28;;;;;;;4.40;4.00;;;;;;;14.31;66.73;102020.94;688516;28;22651;-70
2021/09/21 01:02:51;;;;;;;4.55;4.10;;;;;;;14.26;66.37;102012.44;688554;28;23343;-70
2021/09/21 01:03:12;;;;;;;4.50;4.10;;;;;;;14.29;66.60;102028.41;686899;28;69295;-70
2021/09/21 01:03:33;;;;;;;4.25;3.95;;;;;;;14.30;66.47;102021.94;687856;28;21526;-70
2021/09/21 01:03:55;;;;;;;6.65;5.97;;;;;;;14.32;66.69;102021.78;688304;28;22302;-70
2021/09/21 01:04:16;;;;;;;8.43;7.13;;;;;;;14.30;66.37;102034.69;686475;28;47460;-70
2021/09/21 01:04:37;;;;;;;4.35;3.85;;;;;;;14.23;66.60;102027.22;685878;28;21530;-70
2021/09/21 01:04:58;;;;;;;5.10;4.10;;;;;;;14.28;66.52;102032.16;685553;28;21626;-70
2021/09/21 01:05:21;;;;;;;4.45;4.05;;;;;;;14.29;66.76;102025.69;685836;28;22406;-70
2021/09/21 01:05:42;;;;;;;4.50;4.18;;;;;;;14.29;66.62;102035.72;684397;28;69457;-70
2021/09/21 01:06:03;;;;;;;4.75;4.35;;;;;;;14.28;66.54;102034.88;685860;28;22553;-70
2021/09/21 01:06:24;;;;;;;4.97;4.30;;;;;;;14.25;66.92;102024.34;685355;28;17238;-70
2021/09/21 01:06:47;;;;;;;5.45;4.40;;;;;;;14.27;66.92;102027.72;684531;28;46399;-69
2021/09/21 01:07:08;;;;;;;4.70;4.20;;;;;;;14.29;66.79;102035.72;684921;28;45249;-70
2021/09/21 01:07:30;;;;;;;5.68;4.57;;;;;;;14.28;66.85;102034.88;686282;28;22209;-70
2021/09/21 01:07:51;;;;;;;6.35;4.28;;;;;;;14.29;66.91;102035.72;684546;28;46280;-70
2021/09/21 01:08:13;;;;;;;6.10;4.40;;;;;;;14.29;66.64;102039.25;685278;28;22374;-70
2021/09/21 01:08:34;;;;;;;10.25;6.95;;;;;;;14.28;66.86;102034.88;684917;28;44408;-70
2021/09/21 01:08:56;;;;;;;5.55;4.20;;;;;;;14.30;66.75;102040.97;686197;28;21541;-70
2021/09/21 01:09:17;;;;;;;4.72;4.30;;;;;;;14.29;66.47;102033.81;688102;28;23504;-70
2021/09/21 01:09:39;;;;;;;4.45;4.07;;;;;;;14.31;66.42;102039.97;687651;28;46172;-70
2021/09/21 01:10:01;;;;;;;5.10;4.20;;;;;;;14.32;66.36;102038.94;687246;28;45277;-70
2021/09/21 01:10:25;;;;;;;5.28;4.18;;;;;;;14.32;66.50;102041.66;687537;28;46571;-70
2021/09/21 01:10:46;;;;;;;4.95;4.10;;;;;;;14.32;66.58;102025.34;685866;28;91987;-69
2021/09/21 01:11:09;;;;;;;5.32;4.22;;;;;;;14.33;66.49;102035.19;687669;28;22416;-70
2021/09/21 01:11:31;;;;;;;6.20;4.50;;;;;;;14.34;66.67;102044.19;684653;28;67640;-70
2021/09/21 01:11:55;;;;;;;5.60;4.18;;;;;;;14.35;66.63;102040.47;686005;28;22432;-70
2021/09/21 01:12:16;;;;;;;5.45;4.20;;;;;;;14.34;66.49;102042.34;682074;28;113988;-70
2021/09/21 01:12:38;;;;;;;34.45;23.88;;;;;;;14.35;66.34;102037.75;685961;28;22316;-69
2021/09/21 01:13:00;;;;;;;22.85;15.68;;;;;;;14.34;66.34;102036.91;686024;28;23470;-70
2021/09/21 01:13:21;;;;;;;4.57;4.03;;;;;;;14.34;66.48;102038.75;684117;28;69379;-69
2021/09/21 01:13:42;;;;;;;5.05;4.38;;;;;;;14.34;66.23;102042.34;684721;28;45253;-69
2021/09/21 01:14:03;;;;;;;7.93;7.20;;;;;;;14.34;66.25;102042.34;686016;28;21552;-70
2021/09/21 01:14:26;;;;;;;5.03;4.20;;;;;;;14.34;66.34;102036.91;686843;28;1795;-70
2021/09/21 01:14:47;;;;;;;4.50;4.10;;;;;;;14.34;66.48;102033.31;684421;28;69471;-70
2021/09/21 01:15:10;;;;;;;4.55;4.15;;;;;;;14.33;66.36;102032.47;685826;28;22402;-70
2021/09/21 01:15:32;;;;;;;4.90;4.40;;;;;;;14.34;66.54;102038.75;684991;28;44439;-70
2021/09/21 01:15:54;;;;;;;4.68;4.22;;;;;;;14.32;66.27;102033.50;684529;28;69421;-69
2021/09/21 01:16:15;;;;;;;5.32;4.20;;;;;;;14.33;66.47;102027.03;685205;28;46451;-70
2021/09/21 01:16:38;;;;;;;4.85;4.35;;;;;;;14.33;66.29;102031.66;685111;28;46244;-70
2021/09/21 01:16:59;;;;;;;4.55;4.15;;;;;;;14.31;66.57;102025.50;685777;28;23400;-70
2021/09/21 01:17:20;;;;;;;4.90;4.40;;;;;;;14.32;66.38;102025.34;685928;28;24351;-70
2021/09/21 01:17:42;;;;;;;4.47;4.15;;;;;;;14.33;66.50;102042.50;685459;28;22480;-69
2021/09/21 01:18:03;;;;;;;4.60;4.20;;;;;;;14.31;66.43;102029.09;684935;28;46065;-70
2021/09/21 01:18:26;;;;;;;4.65;4.25;;;;;;;14.32;66.58;102038.09;688904;28;1463;-70
2021/09/21 01:18:49;;;;;;;4.70;4.30;;;;;;;14.30;66.34;102029.25;684143;28;68991;-70
2021/09/21 01:19:11;;;;;;;5.15;4.20;;;;;;;14.32;66.60;102038.09;684244;28;67590;-70
2021/09/21 01:19:32;;;;;;;6.65;4.53;;;;;;;14.31;66.59;102025.50;684913;28;45278;-70
2021/09/21 01:19:54;;;;;;;6.75;4.30;;;;;;;14.32;66.55;102033.50;682866;28;24003;-69
2021/09/21 01:20:16;;;;;;;5.00;4.50;;;;;;;14.32;66.55;102025.34;681621;28;44158;-69
2021/09/21 01:20:38;;;;;;;4.60;4.18;;;;;;;14.31;66.29;102023.66;684240;28;15676;-70
2021/09/21 01:21:02;;;;;;;6.22;4.72;;;;;;;14.31;66.19;102025.50;685847;28;21521;-70
2021/09/21 01:21:24;;;;;;;5.15;4.47;;;;;;;14.31;66.39;102031.81;683188;28;92312;-69
2021/09/21 01:21:46;;;;;;;6.25;4.60;;;;;;;14.30;66.58;102024.66;684872;28;46120;-69
2021/09/21 01:22:08;;;;;;;5.43;4.47;;;;;;;14.30;66.42;102030.09;684665;28;44442;-70
2021/09/21 01:22:29;;;;;;;5.10;4.55;;;;;;;14.29;66.36;102028.41;685480;28;46301;-70
2021/09/21 01:22:50;;;;;;;4.78;4.38;;;;;;;14.31;66.66;102030.94;686035;28;22388;-70
2021/09/21 01:23:12;;;;;;;6.28;5.68;;;;;;;14.27;66.56;102027.72;685829;28;21535;-70
2021/09/21 01:23:44;;;;;;;6.53;5.88;;;;;;;14.28;66.27;102020.41;685057;28;47520;-70
2021/09/21 01:24:05;;;;;;;5.33;4.27;;;;;;;14.29;66.44;102033.00;682356;28;136095;-70
2021/09/21 01:24:29;;;;;;;4.80;4.40;;;;;;;14.24;66.58;102026.19;685317;28;42520;-69
2021/09/21 01:24:51;;;;;;;6.05;5.55;;;;;;;14.29;66.25;102036.53;684375;28;69427;-69
2021/09/21 01:25:13;;;;;;;10.55;7.80;;;;;;;14.30;66.29;102037.41;684898;28;46333;-70
2021/09/21 01:25:34;;;;;;;5.22;4.53;;;;;;;14.28;66.33;102028.56;685206;28;45320;-69
2021/09/21 01:25:57;;;;;;;5.00;4.38;;;;;;;14.29;66.69;102033.00;684652;28;46352;-69
2021/09/21 01:26:19;;;;;;;4.82;4.43;;;;;;;14.29;66.76;102033.81;684399;28;70242;-70
2021/09/21 01:26:40;;;;;;;4.88;4.43;;;;;;;14.29;66.57;102030.28;683872;28;47288;-70
2021/09/21 01:27:02;;;;;;;4.90;4.40;;;;;;;14.29;66.41;102031.13;683688;28;46304;-70
2021/09/21 01:27:24;;;;;;;5.13;4.50;;;;;;;14.29;66.45;102033.81;685898;28;22421;-70
2021/09/21 01:27:46;;;;;;;4.65;4.07;;;;;;;14.29;66.59;102035.72;684922;28;22228;-70
2021/09/21 01:28:07;;;;;;;5.03;4.30;;;;;;;14.28;66.70;102031.28;685104;28;46318;-70
2021/09/21 01:28:28;;;;;;;5.55;4.60;;;;;;;14.28;66.39;102034.88;685925;28;22418;-70
2021/09/21 01:28:49;;;;;;;5.10;4.50;;;;;;;14.27;66.54;102037.75;685835;28;21297;-70
2021/09/21 01:29:11;;;;;;;7.13;4.72;;;;;;;14.26;66.77;102039.59;685071;28;45222;-70
2021/09/21 01:29:33;;;;;;;7.18;4.70;;;;;;;14.26;66.67;102038.75;684937;28;46345;-70
2021/09/21 01:29:54;;;;;;;5.10;4.60;;;;;;;14.24;66.80;102039.78;685907;28;22411;-70
2021/09/21 01:30:15;;;;;;;5.05;4.60;;;;;;;14.26;66.95;102039.59;686135;28;21253;-70
2021/09/21 01:30:37;;;;;;;5.10;4.60;;;;;;;14.26;66.57;102039.59;685539;28;45284;-70
2021/09/21 01:30:58;;;;;;;4.75;4.28;;;;;;;14.25;66.91;102040.66;685608;28;44395;-70
2021/09/21 01:31:20;;;;;;;5.00;4.60;;;;;;;14.26;66.52;102045.03;686720;28;22361;-70
2021/09/21 01:31:41;;;;;;;5.03;4.45;;;;;;;14.26;66.54;102036.88;687055;28;22398;-70
2021/09/21 01:32:03;;;;;;;4.80;4.30;;;;;;;14.25;66.78;102043.38;685981;28;46345;-70
2021/09/21 01:32:25;;;;;;;5.50;4.50;;;;;;;14.27;66.72;102041.31;685841;28;46694;-70
2021/09/21 01:32:46;;;;;;;4.90;4.30;;;;;;;14.28;66.51;102047.59;685241;28;46351;-70
2021/09/21 01:33:07;;;;;;;5.30;4.30;;;;;;;14.27;66.85;102044.03;685124;28;44387;-70
2021/09/21 01:33:28;;;;;;;4.60;4.20;;;;;;;14.29;66.57;102047.41;684483;28;45020;-70
2021/09/21 01:33:52;;;;;;;4.88;4.38;;;;;;;14.29;66.57;102050.13;685531;28;22390;-70
2021/09/21 01:34:17;;;;;;;5.47;4.80;;;;;;;14.30;66.59;102049.13;683595;28;90821;-70
2021/09/21 01:34:38;;;;;;;5.28;4.53;;;;;;;14.28;66.53;102045.75;681924;28;138139;-70
2021/09/21 01:35:01;;;;;;;5.72;4.40;;;;;;;14.31;66.59;102047.25;686154;28;23445;-70
2021/09/21 01:35:22;;;;;;;5.28;4.70;;;;;;;14.32;66.33;102044.38;684981;28;47364;-70
2021/09/21 01:35:43;;;;;;;4.82;4.43;;;;;;;14.32;66.48;102047.09;685987;28;21531;-70
2021/09/21 01:36:04;;;;;;;5.30;4.40;;;;;;;14.33;66.30;102042.50;685773;28;22403;-70
2021/09/21 01:36:29;;;;;;;5.35;4.50;;;;;;;14.33;66.48;102039.78;685669;28;23910;-70
2021/09/21 01:36:50;;;;;;;5.75;4.78;;;;;;;14.34;66.54;102047.78;682840;28;115148;-70
2021/09/21 01:37:13;;;;;;;5.30;4.80;;;;;;;14.34;66.48;102042.34;685784;28;22397;-70
2021/09/21 01:37:35;;;;;;;5.85;4.50;;;;;;;14.35;66.27;102044.03;684508;28;68316;-70
2021/09/21 01:37:56;;;;;;;5.25;4.57;;;;;;;14.33;66.23;102042.50;686229;28;34157;-70
2021/09/21 01:38:17;;;;;;;5.88;4.47;;;;;;;14.33;66.26;102043.34;688561;28;22386;-70
2021/09/21 01:38:38;;;;;;;4.88;4.22;;;;;;;14.33;66.34;102043.34;688044;28;21537;-70
2021/09/21 01:38:59;;;;;;;5.22;4.72;;;;;;;14.33;66.39;102048.78;688307;28;22402;-70
2021/09/21 01:39:23;;;;;;;5.22;4.72;;;;;;;14.31;66.53;102045.41;688629;28;22386;-70
2021/09/21 01:39:44;;;;;;;5.00;4.45;;;;;;;14.32;66.40;102041.66;683204;28;92140;-70
2021/09/21 01:40:07;;;;;;;5.65;4.85;;;;;;;14.33;66.36;102047.94;685694;28;22460;-70
2021/09/21 01:40:28;;;;;;;4.85;4.43;;;;;;;14.34;66.44;102049.63;684018;28;67503;-70
2021/09/21 01:40:50;;;;;;;5.03;4.57;;;;;;;14.32;66.35;102036.22;685624;28;22367;-70
2021/09/21 01:41:12;;;;;;;4.85;4.22;;;;;;;14.32;66.38;102044.38;685238;28;45248;-70
2021/09/21 01:41:33;;;;;;;4.88;4.40;;;;;;;14.32;66.59;102041.66;686099;28;23503;-70
2021/09/21 01:41:54;;;;;;;5.10;4.60;;;;;;;14.32;66.57;102041.66;684966;28;46303;-70
2021/09/21 01:42:15;;;;;;;5.35;4.70;;;;;;;14.32;66.41;102046.25;684598;28;45253;-70
2021/09/21 01:42:44;;;;;;;7.07;4.70;;;;;;;14.32;66.51;102047.09;686109;28;22373;-70
2021/09/21 01:43:05;;;;;;;5.63;5.03;;;;;;;14.32;66.58;102043.53;684333;28;136697;-70
2021/09/21 01:43:27;;;;;;;5.43;4.80;;;;;;;14.33;66.35;102045.22;688324;28;22402;-69